createdAt,value
2018-05-23T00:02:05.904Z,16.20
2018-05-23T00:04:33.460Z,16.10
2018-05-23T00:07:01.741Z,16.10
2018-05-23T00:09:29.253Z,16.00
2018-05-23T00:11:56.750Z,16.10
2018-05-23T00:14:25.018Z,16.10
2018-05-23T00:16:53.412Z,16.10
2018-05-23T00:19:20.945Z,16.00
2018-05-23T00:21:48.541Z,16.00
2018-05-23T00:24:16.044Z,15.80
2018-05-23T00:26:43.560Z,15.90
2018-05-23T00:29:11.096Z,15.90
2018-05-23T00:31:38.642Z,16.00
2018-05-23T00:34:06.920Z,15.90
2018-05-23T00:36:35.217Z,15.90
2018-05-23T00:39:02.710Z,15.90
2018-05-23T00:41:30.199Z,15.40
2018-05-23T00:43:58.592Z,15.80
2018-05-23T00:46:26.102Z,15.80
2018-05-23T00:48:53.760Z,15.90
2018-05-23T00:51:22.077Z,15.70
2018-05-23T00:53:49.599Z,15.70
2018-05-23T00:56:17.147Z,15.70
2018-05-23T00:58:44.660Z,15.70
2018-05-23T01:01:12.216Z,15.70
2018-05-23T01:03:39.789Z,15.70
2018-05-23T01:06:07.343Z,15.70
2018-05-23T01:08:34.855Z,15.60
2018-05-23T01:11:03.162Z,15.60
2018-05-23T01:13:30.671Z,15.50
2018-05-23T01:15:58.178Z,15.60
2018-05-23T01:18:25.731Z,15.50
2018-05-23T01:20:53.252Z,15.50
2018-05-23T01:23:20.775Z,15.40
2018-05-23T01:25:48.289Z,15.40
2018-05-23T01:28:16.593Z,15.40
2018-05-23T01:30:44.136Z,15.30
2018-05-23T01:33:11.697Z,15.30
2018-05-23T01:35:39.252Z,15.30
2018-05-23T01:38:06.768Z,15.20
2018-05-23T01:40:34.265Z,15.20
2018-05-23T01:43:01.835Z,15.20
2018-05-23T01:45:29.331Z,15.20
2018-05-23T01:47:56.887Z,15.20
2018-05-23T01:50:24.389Z,15.30
2018-05-23T01:52:51.898Z,15.20
2018-05-23T01:55:19.421Z,15.10
2018-05-23T01:57:46.940Z,15.10
2018-05-23T02:00:15.252Z,15.00
2018-05-23T02:02:42.744Z,14.90
2018-05-23T02:05:10.253Z,15.00
2018-05-23T02:07:37.752Z,14.90
2018-05-23T02:10:05.273Z,14.90
2018-05-23T02:12:32.767Z,14.90
2018-05-23T02:15:00.369Z,14.80
2018-05-23T02:17:28.646Z,14.80
2018-05-23T02:19:56.921Z,14.80
2018-05-23T02:22:24.419Z,14.70
2018-05-23T02:24:51.930Z,14.80
2018-05-23T02:27:20.211Z,14.80
2018-05-23T02:29:48.476Z,14.80
2018-05-23T02:32:16.745Z,14.90
2018-05-23T02:34:45.040Z,14.90
2018-05-23T02:37:12.605Z,14.80
2018-05-23T02:39:40.127Z,14.90
2018-05-23T02:42:07.739Z,15.00
2018-05-23T02:44:35.250Z,15.00
2018-05-23T02:47:03.668Z,14.90
2018-05-23T02:49:31.083Z,14.80
2018-05-23T02:51:59.372Z,14.90
2018-05-23T02:54:26.890Z,14.90
2018-05-23T02:56:54.403Z,14.90
2018-05-23T02:59:21.923Z,14.90
2018-05-23T03:01:50.197Z,14.90
2018-05-23T03:04:18.470Z,14.80
2018-05-23T03:06:45.994Z,14.80
2018-05-23T03:09:13.511Z,14.80
2018-05-23T03:11:41.080Z,14.70
2018-05-23T03:14:08.569Z,14.70
2018-05-23T03:16:36.107Z,14.70
2018-05-23T03:19:03.604Z,14.60
2018-05-23T03:21:31.204Z,14.60
2018-05-23T03:23:58.734Z,14.50
2018-05-23T03:26:27.044Z,14.50
2018-05-23T03:28:54.671Z,14.40
2018-05-23T03:31:22.950Z,14.40
2018-05-23T03:33:51.361Z,14.40
2018-05-23T03:36:18.867Z,14.40
2018-05-23T03:38:46.366Z,14.40
2018-05-23T03:41:13.896Z,14.40
2018-05-23T03:43:42.174Z,14.30
2018-05-23T03:46:10.440Z,14.30
2018-05-23T03:48:38.728Z,14.30
2018-05-23T03:51:07.005Z,14.30
2018-05-23T03:53:35.273Z,14.20
2018-05-23T03:56:03.573Z,14.30
2018-05-23T03:58:31.091Z,14.20
2018-05-23T04:01:10.513Z,14.30
2018-05-23T04:03:50.629Z,14.40
2018-05-23T04:09:40.899Z,14.30
2018-05-23T04:12:09.291Z,14.40
2018-05-23T04:14:36.808Z,14.40
2018-05-23T04:17:04.381Z,14.50
2018-05-23T04:19:32.675Z,14.50
2018-05-23T04:22:01.061Z,14.60
2018-05-23T04:24:28.602Z,14.50
2018-05-23T04:26:56.916Z,14.60
2018-05-23T04:29:24.430Z,14.50
2018-05-23T04:31:52.813Z,14.70
2018-05-23T04:34:21.072Z,14.80
2018-05-23T04:36:48.554Z,14.80
2018-05-23T04:39:16.135Z,14.90
2018-05-23T04:41:43.652Z,14.90
2018-05-23T04:44:11.949Z,14.90
2018-05-23T04:46:39.494Z,14.80
2018-05-23T04:49:07.836Z,14.90
2018-05-23T04:51:35.337Z,14.90
2018-05-23T04:54:02.855Z,15.00
2018-05-23T04:56:30.387Z,15.00
2018-05-23T04:58:57.901Z,15.00
2018-05-23T05:01:25.407Z,15.10
2018-05-23T05:03:52.942Z,15.10
2018-05-23T05:06:20.455Z,15.10
2018-05-23T05:08:48.768Z,15.20
2018-05-23T05:11:16.294Z,15.10
2018-05-23T05:13:44.668Z,15.20
2018-05-23T05:16:12.191Z,15.20
2018-05-23T05:18:39.825Z,15.30
2018-05-23T05:21:07.355Z,15.30
2018-05-23T05:23:34.881Z,15.30
2018-05-23T05:26:02.399Z,15.30
2018-05-23T05:28:29.913Z,15.30
2018-05-23T05:30:58.191Z,15.40
2018-05-23T05:33:26.492Z,15.50
2018-05-23T05:35:54.004Z,15.50
2018-05-23T05:38:21.512Z,15.60
2018-05-23T05:40:49.037Z,15.70
2018-05-23T05:43:17.380Z,15.90
2018-05-23T05:45:44.898Z,15.90
2018-05-23T05:48:12.423Z,16.00
2018-05-23T05:50:40.712Z,16.10
2018-05-23T05:53:09.077Z,16.30
2018-05-23T05:55:37.369Z,16.40
2018-05-23T05:58:04.927Z,16.40
2018-05-23T06:00:32.443Z,16.50
2018-05-23T06:03:00.768Z,16.70
2018-05-23T06:05:28.308Z,16.70
2018-05-23T06:07:56.613Z,17.00
2018-05-23T06:10:24.173Z,17.00
2018-05-23T06:12:52.900Z,17.20
2018-05-23T06:15:21.283Z,17.50
2018-05-23T06:17:48.872Z,17.50
2018-05-23T06:20:16.366Z,17.90
2018-05-23T06:22:44.007Z,18.20
2018-05-23T06:25:11.532Z,18.50
2018-05-23T06:27:39.880Z,18.40
2018-05-23T06:30:07.405Z,18.40
2018-05-23T06:32:34.932Z,18.50
2018-05-23T06:35:02.457Z,18.50
2018-05-23T06:37:29.965Z,18.50
2018-05-23T06:39:57.500Z,18.50
2018-05-23T06:42:25.811Z,18.80
2018-05-23T06:44:53.343Z,18.70
2018-05-23T06:47:20.863Z,18.80
2018-05-23T06:49:48.375Z,19.10
2018-05-23T06:52:15.886Z,19.20
2018-05-23T06:54:44.166Z,19.30
2018-05-23T06:57:12.433Z,19.60
2018-05-23T06:59:40.744Z,20.00
2018-05-23T07:02:08.272Z,19.90
2018-05-23T07:04:36.552Z,20.70
2018-05-23T07:07:04.810Z,21.20
2018-05-23T07:09:32.416Z,21.10
2018-05-23T07:11:59.921Z,21.60
2018-05-23T07:14:27.433Z,21.50
2018-05-23T07:16:54.915Z,21.90
2018-05-23T07:19:22.532Z,22.10
2018-05-23T07:21:50.051Z,22.20
2018-05-23T07:24:18.366Z,21.90
2018-05-23T07:26:45.908Z,21.90
2018-05-23T07:29:13.489Z,21.80
2018-05-23T07:31:41.035Z,21.50
2018-05-23T07:34:08.595Z,21.60
2018-05-23T07:36:36.132Z,21.50
2018-05-23T07:39:04.444Z,22.20
2018-05-23T07:41:32.104Z,22.20
2018-05-23T07:43:59.661Z,22.70
2018-05-23T07:46:27.175Z,22.50
2018-05-23T07:48:55.499Z,23.00
2018-05-23T07:51:22.992Z,23.00
2018-05-23T07:53:50.499Z,23.40
2018-05-23T07:56:18.016Z,23.60
2018-05-23T07:58:46.300Z,23.50
2018-05-23T08:01:14.630Z,23.60
2018-05-23T08:03:42.251Z,23.60
2018-05-23T08:06:09.760Z,23.80
2018-05-23T08:08:37.294Z,23.90
2018-05-23T08:11:04.819Z,23.70
2018-05-23T08:13:32.351Z,23.90
2018-05-23T08:15:59.950Z,24.10
2018-05-23T08:18:27.441Z,23.70
2018-05-23T08:20:54.960Z,23.30
2018-05-23T08:23:22.489Z,23.50
2018-05-23T08:25:50.753Z,24.20
2018-05-23T08:28:18.316Z,24.10
2018-05-23T08:30:46.604Z,24.00
2018-05-23T08:33:14.880Z,24.20
2018-05-23T08:35:43.211Z,24.30
2018-05-23T08:38:10.752Z,24.30
2018-05-23T08:40:38.271Z,24.40
2018-05-23T08:43:06.554Z,24.20
2018-05-23T08:45:34.067Z,24.10
2018-05-23T08:48:01.581Z,24.30
2018-05-23T08:50:29.102Z,24.50
2018-05-23T08:52:57.381Z,24.80
2018-05-23T08:55:25.713Z,24.70
2018-05-23T08:57:53.236Z,24.60
2018-05-23T09:00:20.744Z,25.30
2018-05-23T09:02:48.252Z,25.00
2018-05-23T09:05:15.803Z,24.70
2018-05-23T09:07:43.290Z,24.40
2018-05-23T09:10:10.799Z,24.00
2018-05-23T09:12:39.202Z,24.10
2018-05-23T09:15:06.652Z,24.00
2018-05-23T09:17:34.232Z,24.80
2018-05-23T09:20:01.732Z,24.90
2018-05-23T09:22:29.244Z,24.10
2018-05-23T09:24:56.753Z,24.00
2018-05-23T09:27:25.074Z,24.20
2018-05-23T09:29:52.563Z,24.20
2018-05-23T09:32:20.129Z,24.70
2018-05-23T09:34:47.679Z,24.90
2018-05-23T09:37:15.540Z,24.80
2018-05-23T09:39:43.166Z,25.10
2018-05-23T09:42:10.705Z,24.80
2018-05-23T09:44:38.228Z,24.30
2018-05-23T09:47:05.746Z,24.00
2018-05-23T09:49:33.279Z,24.00
2018-05-23T09:52:00.795Z,23.90
2018-05-23T09:54:28.301Z,23.90
2018-05-23T09:56:55.828Z,24.30
2018-05-23T09:59:24.106Z,25.60
2018-05-23T10:01:52.423Z,25.50
2018-05-23T10:04:19.955Z,25.50
2018-05-23T10:06:47.534Z,25.50
2018-05-23T10:09:15.098Z,25.80
2018-05-23T10:11:42.610Z,25.60
2018-05-23T10:14:10.888Z,25.50
2018-05-23T10:16:39.186Z,24.60
2018-05-23T10:19:06.742Z,24.50
2018-05-23T10:21:34.255Z,23.90
2018-05-23T10:24:01.757Z,24.10
2018-05-23T10:26:29.327Z,24.50
2018-05-23T10:28:56.830Z,24.30
2018-05-23T10:31:24.358Z,24.60
2018-05-23T10:33:51.854Z,25.10
2018-05-23T10:36:20.133Z,25.90
2018-05-23T10:38:48.403Z,25.10
2018-05-23T10:41:16.737Z,24.50
2018-05-23T10:43:44.237Z,24.40
2018-05-23T10:46:12.591Z,23.50
2018-05-23T10:48:40.076Z,23.50
2018-05-23T10:51:08.360Z,24.60
2018-05-23T10:53:35.968Z,24.60
2018-05-23T10:56:03.501Z,24.80
2018-05-23T10:58:31.020Z,24.40
2018-05-23T11:00:59.303Z,24.70
2018-05-23T11:03:26.841Z,24.70
2018-05-23T11:05:55.116Z,24.70
2018-05-23T11:08:22.682Z,24.60
2018-05-23T11:10:50.948Z,24.80
2018-05-23T11:13:18.439Z,24.80
2018-05-23T11:15:45.974Z,24.90
2018-05-23T11:18:14.235Z,25.40
2018-05-23T11:20:41.816Z,25.30
2018-05-23T11:23:10.261Z,24.90
2018-05-23T11:25:37.759Z,24.90
2018-05-23T11:28:05.250Z,24.80
2018-05-23T11:30:32.780Z,25.30
2018-05-23T11:33:00.299Z,25.10
2018-05-23T11:35:27.827Z,25.10
2018-05-23T11:37:55.354Z,24.70
2018-05-23T11:40:22.849Z,25.00
2018-05-23T11:42:50.379Z,25.00
2018-05-23T11:45:17.894Z,25.40
2018-05-23T11:47:46.175Z,24.40
2018-05-23T11:50:14.478Z,23.70
2018-05-23T11:52:41.981Z,23.60
2018-05-23T11:55:09.559Z,24.00
2018-05-23T11:57:37.807Z,24.90
2018-05-23T12:00:05.323Z,24.80
2018-05-23T12:02:32.824Z,24.90
2018-05-23T12:05:00.332Z,25.30
2018-05-23T12:07:27.877Z,24.60
2018-05-23T12:09:55.378Z,24.40
2018-05-23T12:12:22.977Z,24.80
2018-05-23T12:14:51.250Z,24.50
2018-05-23T12:17:19.529Z,24.30
2018-05-23T12:19:47.790Z,24.30
2018-05-23T12:22:16.081Z,24.20
2018-05-23T12:24:44.365Z,24.50
2018-05-23T12:27:11.945Z,24.40
2018-05-23T12:29:39.439Z,24.40
2018-05-23T12:32:06.938Z,24.70
2018-05-23T12:34:34.456Z,25.10
2018-05-23T12:37:01.962Z,25.40
2018-05-23T12:39:29.512Z,25.70
2018-05-23T12:41:57.769Z,25.40
2018-05-23T12:44:26.041Z,24.80
2018-05-23T12:46:54.318Z,24.70
2018-05-23T12:49:32.502Z,25.00
2018-05-23T12:52:00.010Z,25.00
2018-05-23T12:54:27.559Z,24.40
2018-05-23T12:56:55.113Z,24.30
2018-05-23T12:59:22.635Z,24.30
2018-05-23T13:01:50.110Z,24.10
2018-05-23T13:04:18.410Z,24.00
2018-05-23T13:06:45.921Z,24.00
2018-05-23T13:09:13.445Z,23.90
2018-05-23T13:11:40.985Z,23.90
2018-05-23T13:14:08.520Z,24.10
2018-05-23T13:16:36.922Z,24.70
2018-05-23T13:19:04.448Z,24.60
2018-05-23T13:21:32.722Z,24.00
2018-05-23T13:24:01.046Z,23.90
2018-05-23T13:26:28.605Z,23.90
2018-05-23T13:28:56.125Z,23.70
2018-05-23T13:31:23.685Z,23.70
2018-05-23T13:33:51.221Z,23.70
2018-05-23T13:36:19.485Z,24.00
2018-05-23T13:38:46.982Z,23.90
2018-05-23T13:41:14.496Z,24.40
2018-05-23T13:43:42.032Z,24.60
2018-05-23T13:46:09.651Z,24.60
2018-05-23T13:48:37.168Z,24.70
2018-05-23T13:51:04.697Z,24.70
2018-05-23T13:53:32.233Z,24.40
2018-05-23T13:55:59.756Z,24.40
2018-05-23T13:58:28.355Z,24.30
2018-05-23T14:00:55.968Z,24.20
2018-05-23T14:03:23.471Z,24.10
2018-05-23T14:05:51.024Z,24.00
2018-05-23T14:08:18.569Z,23.90
2018-05-23T14:10:46.857Z,23.90
2018-05-23T14:13:14.427Z,23.80
2018-05-23T14:15:41.935Z,23.80
2018-05-23T14:18:09.438Z,23.90
2018-05-23T14:20:36.944Z,23.60
2018-05-23T14:23:04.439Z,23.90
2018-05-23T14:25:31.922Z,23.90
2018-05-23T14:27:59.509Z,23.90
2018-05-23T14:30:27.116Z,24.00
2018-05-23T14:32:54.642Z,24.00
2018-05-23T14:35:22.190Z,24.20
2018-05-23T14:37:49.718Z,24.10
2018-05-23T14:40:17.264Z,24.10
2018-05-23T14:42:44.776Z,24.00
2018-05-23T14:45:12.382Z,24.00
2018-05-23T14:47:40.043Z,24.00
2018-05-23T14:50:07.655Z,23.70
2018-05-23T14:52:35.095Z,23.90
2018-05-23T14:55:02.616Z,23.40
2018-05-23T14:57:30.113Z,23.60
2018-05-23T14:59:57.773Z,23.70
2018-05-23T15:02:25.425Z,23.50
2018-05-23T15:04:52.903Z,23.50
2018-05-23T15:07:21.195Z,23.60
2018-05-23T15:09:49.476Z,23.50
2018-05-23T15:12:17.012Z,23.50
2018-05-23T15:14:45.304Z,23.20
2018-05-23T15:17:12.853Z,23.10
2018-05-23T15:19:41.176Z,23.20
2018-05-23T15:22:08.678Z,23.20
2018-05-23T15:24:36.951Z,23.30
2018-05-23T15:27:05.241Z,23.40
2018-05-23T15:29:33.640Z,23.40
2018-05-23T15:32:01.147Z,23.40
2018-05-23T15:34:29.485Z,23.00
2018-05-23T15:36:57.023Z,23.00
2018-05-23T15:39:24.600Z,23.10
2018-05-23T15:41:52.128Z,23.10
2018-05-23T15:44:19.663Z,23.10
2018-05-23T15:46:47.940Z,22.90
2018-05-23T15:49:16.224Z,22.80
2018-05-23T15:51:44.509Z,22.80
2018-05-23T15:54:12.084Z,22.70
2018-05-23T15:56:39.645Z,23.00
2018-05-23T15:59:07.186Z,23.00
2018-05-23T16:01:34.707Z,23.00
2018-05-23T16:04:02.216Z,23.00
2018-05-23T16:06:29.740Z,22.90
2018-05-23T16:08:58.032Z,23.10
2018-05-23T16:11:25.578Z,23.00
2018-05-23T16:13:53.927Z,23.10
2018-05-23T16:16:21.409Z,23.00
2018-05-23T16:18:49.709Z,23.30
2018-05-23T16:21:17.236Z,23.20
2018-05-23T16:23:45.528Z,23.20
2018-05-23T16:26:13.103Z,23.20
2018-05-23T16:28:40.638Z,23.20
2018-05-23T16:31:08.148Z,23.10
2018-05-23T16:33:35.650Z,23.00
2018-05-23T16:36:04.055Z,23.10
2018-05-23T16:38:31.561Z,23.00
2018-05-23T16:40:59.065Z,23.00
2018-05-23T16:43:26.598Z,23.10
2018-05-23T16:45:54.093Z,23.10
2018-05-23T16:48:21.618Z,23.00
2018-05-23T16:50:49.150Z,23.00
2018-05-23T16:53:17.416Z,22.90
2018-05-23T16:55:45.066Z,22.90
2018-05-23T16:58:12.530Z,22.90
2018-05-23T17:00:40.839Z,22.80
2018-05-23T17:03:08.390Z,22.80
2018-05-23T17:05:36.667Z,22.80
2018-05-23T17:08:04.162Z,22.70
2018-05-23T17:10:31.650Z,22.80
2018-05-23T17:12:59.172Z,22.70
2018-05-23T17:15:26.665Z,22.70
2018-05-23T17:17:54.179Z,22.70
2018-05-23T17:20:21.712Z,22.60
2018-05-23T17:22:49.216Z,22.40
2018-05-23T17:25:16.707Z,22.30
2018-05-23T17:27:44.972Z,22.20
2018-05-23T17:30:12.500Z,22.20
2018-05-23T17:32:40.022Z,22.20
2018-05-23T17:35:07.535Z,22.20
2018-05-23T17:37:35.049Z,22.10
2018-05-23T17:40:02.588Z,22.10
2018-05-23T17:42:30.155Z,22.10
2018-05-23T17:44:57.700Z,22.00
2018-05-23T17:47:25.219Z,21.90
2018-05-23T17:49:52.753Z,21.90
2018-05-23T17:52:20.319Z,21.90
2018-05-23T17:54:47.836Z,21.90
2018-05-23T17:57:15.402Z,21.80
2018-05-23T17:59:42.882Z,21.80
2018-05-23T18:02:10.416Z,21.90
2018-05-23T18:04:37.917Z,21.80
2018-05-23T18:07:05.438Z,21.60
2018-05-23T18:09:32.957Z,21.50
2018-05-23T18:12:01.348Z,20.70
2018-05-23T18:14:28.926Z,20.70
2018-05-23T18:16:56.420Z,20.30
2018-05-23T18:19:24.222Z,20.10
2018-05-23T18:21:51.778Z,19.70
2018-05-23T18:24:20.058Z,19.60
2018-05-23T18:26:47.579Z,19.50
2018-05-23T18:29:15.172Z,19.60
2018-05-23T18:31:42.682Z,19.40
2018-05-23T18:34:10.198Z,19.30
2018-05-23T18:36:37.734Z,19.00
2018-05-23T18:39:06.019Z,17.90
2018-05-23T18:41:33.562Z,17.90
2018-05-23T18:44:01.838Z,17.30
2018-05-23T18:46:30.237Z,17.20
2018-05-23T18:48:57.812Z,17.20
2018-05-23T18:51:25.347Z,17.00
2018-05-23T18:53:52.848Z,16.70
2018-05-23T18:56:20.346Z,16.70
2018-05-23T18:58:47.852Z,16.80
2018-05-23T19:01:15.369Z,16.70
2018-05-23T19:03:42.901Z,16.70
2018-05-23T19:06:11.218Z,16.70
2018-05-23T19:08:38.752Z,16.70
2018-05-23T19:11:07.024Z,16.80
2018-05-23T19:13:35.296Z,16.60
2018-05-23T19:16:03.584Z,16.60
2018-05-23T19:18:31.095Z,16.50
2018-05-23T19:20:58.691Z,16.50
2018-05-23T19:23:26.978Z,16.40
2018-05-23T19:25:54.492Z,16.30
2018-05-23T19:28:22.106Z,16.40
2018-05-23T19:30:49.625Z,16.50
2018-05-23T19:33:17.895Z,16.60
2018-05-23T19:35:45.526Z,16.60
2018-05-23T19:38:13.019Z,16.50
2018-05-23T19:40:41.310Z,16.60
2018-05-23T19:43:08.838Z,16.60
2018-05-23T19:45:36.358Z,16.70
2018-05-23T19:48:03.871Z,16.70
2018-05-23T19:50:33.899Z,16.80
2018-05-23T19:53:01.557Z,16.80
2018-05-23T19:55:29.730Z,16.70
2018-05-23T19:57:57.307Z,16.60
2018-05-23T20:00:24.850Z,16.80
2018-05-23T20:02:52.413Z,16.70
2018-05-23T20:05:19.960Z,16.70
2018-05-23T20:07:47.475Z,16.70
2018-05-23T20:10:15.062Z,16.60
2018-05-23T20:12:43.342Z,16.60
2018-05-23T20:15:11.658Z,16.70
2018-05-23T20:17:39.167Z,16.60
2018-05-23T20:20:07.494Z,16.90
2018-05-23T20:22:35.013Z,16.80
2018-05-23T20:25:02.548Z,16.90
2018-05-23T20:27:30.838Z,16.90
2018-05-23T20:29:59.143Z,16.90
2018-05-23T20:32:26.749Z,16.80
2018-05-23T20:34:54.249Z,16.80
2018-05-23T20:37:21.768Z,16.80
2018-05-23T20:39:50.030Z,16.90
2018-05-23T20:42:17.556Z,16.90
2018-05-23T20:44:45.080Z,16.90
2018-05-23T20:47:12.665Z,16.90
2018-05-23T20:49:40.195Z,16.80
2018-05-23T20:52:07.783Z,16.80
2018-05-23T20:54:35.342Z,16.80
2018-05-23T20:57:02.875Z,16.80
2018-05-23T20:59:30.423Z,16.80
2018-05-23T21:01:57.934Z,16.80
2018-05-23T21:04:25.462Z,16.90
2018-05-23T21:06:53.003Z,16.90
2018-05-23T21:09:20.538Z,16.90
2018-05-23T21:11:48.808Z,16.90
2018-05-23T21:14:17.204Z,17.00
2018-05-23T21:16:45.496Z,16.90
2018-05-23T21:19:13.052Z,16.80
2018-05-23T21:21:40.565Z,16.90
2018-05-23T21:24:08.082Z,17.00
2018-05-23T21:26:35.607Z,16.90
2018-05-23T21:29:03.908Z,17.00
2018-05-23T21:31:31.427Z,16.90
2018-05-23T21:33:59.759Z,16.90
2018-05-23T21:36:27.275Z,16.80
2018-05-23T21:38:54.842Z,16.90
2018-05-23T21:41:22.384Z,16.80
2018-05-23T21:43:50.688Z,16.90
2018-05-23T21:46:18.179Z,16.80
2018-05-23T21:48:45.722Z,16.80
2018-05-23T21:51:13.217Z,16.80
2018-05-23T21:53:41.503Z,16.80
2018-05-23T21:56:09.920Z,16.80
2018-05-23T21:58:37.448Z,16.70
2018-05-23T22:01:04.979Z,16.70
2018-05-23T22:03:32.494Z,16.70
2018-05-23T22:06:00.119Z,16.60
2018-05-23T22:08:27.679Z,16.60
2018-05-23T22:10:55.194Z,16.60
2018-05-23T22:13:22.705Z,16.50
2018-05-23T22:15:50.204Z,16.50
2018-05-23T22:18:17.769Z,16.50
2018-05-23T22:20:45.311Z,16.50
2018-05-23T22:23:12.851Z,16.50
2018-05-23T22:25:40.363Z,16.50
2018-05-23T22:28:07.921Z,16.50
2018-05-23T22:30:36.326Z,16.50
2018-05-23T22:33:03.775Z,16.40
2018-05-23T22:35:31.274Z,16.50
2018-05-23T22:37:58.784Z,16.40
2018-05-23T22:40:26.352Z,16.40
2018-05-23T22:42:53.871Z,16.30
2018-05-23T22:45:21.389Z,16.30
2018-05-23T22:47:48.942Z,16.20
2018-05-23T22:50:16.470Z,16.20
2018-05-23T22:52:43.980Z,16.10
2018-05-23T22:55:11.514Z,16.10
2018-05-23T22:57:39.008Z,16.20
2018-05-23T23:00:06.537Z,16.10
2018-05-23T23:02:34.049Z,16.10
2018-05-23T23:05:01.634Z,16.00
2018-05-23T23:07:29.186Z,16.00
2018-05-23T23:09:56.725Z,15.90
2018-05-23T23:12:24.213Z,15.90
2018-05-23T23:14:51.759Z,15.90
2018-05-23T23:17:19.301Z,15.80
2018-05-23T23:19:46.855Z,15.80
2018-05-23T23:22:27.181Z,15.70
2018-05-23T23:24:54.734Z,15.70
2018-05-23T23:27:22.348Z,15.60
2018-05-23T23:29:49.868Z,15.60
2018-05-23T23:32:18.167Z,15.60
2018-05-23T23:34:45.699Z,15.60
2018-05-23T23:37:14.002Z,15.60
2018-05-23T23:39:41.521Z,15.50
2018-05-23T23:42:09.022Z,15.60
2018-05-23T23:44:36.664Z,15.60
2018-05-23T23:47:04.136Z,15.60
2018-05-23T23:49:31.646Z,15.60
2018-05-23T23:51:59.183Z,15.60
2018-05-23T23:54:26.711Z,15.50
2018-05-23T23:56:54.272Z,15.60
2018-05-23T23:59:21.806Z,15.60
